Historyczne dane pomiarowe

Dodano dane terminowe – wersja testowa.

Dane z okresu 1951-2019

Wersja bazy: 1.34 [2019-03-16, lista zmian], aktualizacja planowana na 2019-04-15

Dane meteo z obszaru Polski uzyskane na podstawie danych udostępnionych przez Instytut Meteorologii i Gospodarki Wodnej – Państwowy Instytut Badawczy.

 

Wybierz Datę:    

       

TemperaturaWilgotnośćWiatrCiśnienieOpadyŚniegCzas trwania zjawisk
 Stacja t tx tn tng RH VA  wxwx mslp ppp RRR   cm mm wxwxwxwxwxwxwx
1987-08-14 15.3 21.9 12.0 11.1 72.5- 6.0 1.7---- 0.9------------
1987-08-13 12.1 16.8 5.5 1.3 77.3- 4.7 2.0---- 0.0------------
1987-08-12 11.9 17.5 7.9 6.2 72.5- 5.0 5.3---- 0.0------------
1987-08-11 13.0 17.1 11.0 10.8 85.5- 6.3 4.7---- 1.0------------
1987-08-10 15.8 19.5 13.5 12.8 84.5- 6.7 4.3---- 0.3------------
1987-08-09 17.9 24.1 11.2 6.7 58.5- 6.0 4.7---- 0.2------------
1987-08-08 14.0 19.8 10.3 9.3 74.5- 5.3 2.7---- 0.0------------
1987-08-07 11.8 18.5 7.0 4.9 76.8- 4.0 4.3---- 0.5------------
1987-08-06 12.3 17.0 8.6 7.4 74.8- 4.7 3.0---- 0.0------------
1987-08-05 12.5 18.0 7.0 4.4 73.8- 4.0 2.0---- 0.0------------
1987-08-04 15.0 18.8 10.8 7.8 78.5- 5.3 3.3---- 0.0------------
1987-08-03 14.2 18.6 10.4 9.7 75.8- 3.3 4.0---- 0.0------------
1987-08-02 15.1 18.2 11.7 10.8 75.8- 5.7 3.7---- 3.5------------
1987-08-01 15.5 21.0 8.4 5.8 75.5- 5.0 3.7---- 0.9------------
1987-07-31 15.0 20.2 13.5 11.9 95.8- 7.3 1.7---- 3.4------------
1987-07-30 17.8 23.6 11.5 8.9 68.0- 5.0 1.3---- 0.0------------
1987-07-29 14.3 19.0 10.5 10.0 72.3- 5.0 2.3---- 0.0------------
1987-07-28 13.3 18.5 10.3 7.8 88.5- 7.0 5.0---- 2.5------------
1987-07-27 11.5 16.2 7.1 5.6 76.0- 4.7 4.7---- 0.0------------
1987-07-26 13.1 17.0 10.6 11.3 93.5- 7.7 3.3---- 7.8------------
1987-07-25 18.4 23.4 14.6 12.6 89.5- 5.0 1.3---- 2.5------------
1987-07-24 20.5 26.9 16.1 15.0 84.3- 6.3 1.3---- 1.5------------
1987-07-23 20.5 27.7 13.4 11.7 75.0- 3.0 1.0---- 7.0------------
1987-07-22 20.3 24.5 17.0 15.5 80.3- 5.3 2.0---- 0.0------------
1987-07-21 19.0 24.9 11.6 9.3 77.3- 4.3 1.3---- 0.0------------
1987-07-20 20.4 23.9 18.5 17.6 86.0- 5.0 4.0---- 0.0------------
1987-07-19 21.8 27.8 17.7 17.1 89.8- 6.3 2.3---- 0.3------------
1987-07-18 21.3 27.1 16.4 15.9 88.8- 6.3 1.3---- 0.0------------
1987-07-17 20.2 26.6 14.9 12.1 79.8- 6.0 3.0---- 5.9------------
1987-07-16 17.8 26.1 7.0 4.9 66.8- 3.0 1.7---- 0.0------------
1987-07-15 15.8 22.4 6.4 4.4 70.8- 1.3 1.7---- 0.0------------
1987-07-14 15.1 20.1 9.0 7.1 71.0- 1.3 2.0---- 0.0------------
1987-07-13 17.6 22.6 11.8 9.8 72.3- 4.7 3.0---- 0.0------------
1987-07-12 20.3 28.5 13.8 9.7 68.8- 5.0 7.3---- 5.7------------
1987-07-11 16.0 22.6 6.6 3.7 66.0- 3.0 2.7---- 0.0------------
1987-07-10 14.2 18.8 9.8 7.5 67.0- 1.7 4.3---- 0.0------------
1987-07-09 17.4 21.6 15.1 13.6 88.3- 7.7 3.7---- 0.7------------
1987-07-08 20.7 27.9 12.2 8.5 65.5- 1.3 2.7---- 0.0------------
1987-07-07 18.4 24.7 10.0 6.7 61.0- 0.0 2.3---- 0.0------------
1987-07-06 17.3 22.7 8.0 4.4 64.3- 0.0 0.7---- 0.0------------
1987-07-05 15.1 20.5 11.7 11.6 78.5- 5.7 3.3---- 0.3------------
1987-07-04 17.3 21.8 14.6 13.0 72.5- 5.0 1.3---- 0.7------------
1987-07-03 19.0 22.7 15.4 14.5 73.3- 5.3 1.7---- 0.0------------
1987-07-02 20.0 26.0 17.4 17.2 76.5- 6.3 4.0---- 0.0------------
1987-07-01 24.4 30.0 17.4 15.0 75.8- 2.3 1.3---- 0.0------------
1987-06-30 23.0 29.1 15.4 14.2 75.8- 2.0 1.0---- 0.0------------
1987-06-29 19.7 25.4 14.0 11.2 75.8- 4.7 1.7---- 0.0------------
1987-06-28 18.3 24.5 10.5 8.2 77.5- 4.7 4.0---- 0.0------------
1987-06-27 17.7 22.2 14.0 11.8 85.0- 7.0 2.0---- 0.0------------
1987-06-26 15.9 23.1 7.8 6.5 73.8- 3.0 2.3---- 2.4------------
1987-06-25 15.2 17.8 12.2 9.0 78.0- 5.3 4.7---- 0.0------------
1987-06-24 16.1 20.3 12.3 10.1 78.0- 3.3 3.7---- 0.3------------
1987-06-23 16.4 20.5 12.8 12.9 84.0- 6.0 2.0---- 0.4------------
1987-06-22 17.1 23.7 10.6 8.6 75.3- 4.0 2.0---- 0.2------------
1987-06-21 16.9 23.7 7.8 5.2 69.3- 1.3 1.3---- 0.0------------
1987-06-20 14.8 21.3 5.7 2.9 67.3- 1.3 2.0---- 0.0------------
1987-06-19 11.7 16.2 5.8 4.3 78.8- 4.3 1.3---- 0.5------------
1987-06-18 10.1 16.5 4.9 1.4 87.0- 3.7 1.3---- 4.7------------
1987-06-17 11.3 15.6 7.5 4.9 78.8- 4.7 3.0---- 0.0------------
1987-06-16 15.2 24.9 11.1 11.3 83.8- 3.7 2.3---- 4.8------------
406.1 ms

 

Źródłem pochodzenia danych jest Instytut Meteorologii i Gospodarki Wodnej – Państwowy Instytut Badawczy. Dane Instytutu Meteorologii i Gospodarki Wodnej – Państwowego Instytutu Badawczego zostały przetworzone.

Dane źródłowe można odnaleźć na stronie https://dane.imgw.pl